Time;durP1;ratioP1;P1;durP2;ratioP2;P2;SDS_P1;SDS_P2;PMS_P1;PMS_P2;Temp;Humidity;BMP_temperature;BMP_pressure;BME280_temperature;BME280_humidity;BME280_pressure;Samples;Min_cycle;Max_cycle;Signal;HPM_P1;HPM_P2
2021/08/08 00:00:14;;;;;;;15.87;4.53;;;15.80;99.90;;;;;;5103861;28;20361;-68
2021/08/08 00:02:42;;;;;;;22.63;5.17;;;15.80;99.90;;;;;;5108669;28;20327;-69
2021/08/08 00:05:13;;;;;;;18.63;5.20;;;15.80;99.90;;;;;;5105755;28;20270;-68
2021/08/08 00:07:41;;;;;;;19.70;4.70;;;15.80;99.90;;;;;;5109788;28;20183;-68
2021/08/08 00:10:12;;;;;;;19.53;4.70;;;15.70;99.90;;;;;;5108507;28;20206;-67
2021/08/08 00:12:41;;;;;;;21.40;5.17;;;15.70;99.90;;;;;;5106402;28;20202;-68
2021/08/08 00:15:13;;;;;;;18.13;4.77;;;15.60;99.90;;;;;;5110294;28;20180;-68
2021/08/08 00:17:41;;;;;;;18.03;4.27;;;15.60;99.90;;;;;;5111854;28;20192;-67
2021/08/08 00:20:11;;;;;;;21.07;5.37;;;15.50;99.90;;;;;;5107520;28;20175;-67
2021/08/08 00:22:40;;;;;;;20.43;5.03;;;15.60;99.90;;;;;;5117277;28;20187;-66
2021/08/08 00:25:09;;;;;;;19.07;4.93;;;15.60;99.90;;;;;;5105580;28;20203;-67
2021/08/08 00:27:38;;;;;;;11.13;4.03;;;15.60;99.90;;;;;;5109366;28;20450;-68
2021/08/08 00:30:09;;;;;;;18.50;4.30;;;15.60;99.90;;;;;;5105502;28;20323;-67
2021/08/08 00:32:39;;;;;;;15.47;4.37;;;15.50;99.90;;;;;;5107727;28;20315;-68
2021/08/08 00:35:08;;;;;;;20.27;4.30;;;15.50;99.90;;;;;;5116646;28;20291;-67
2021/08/08 00:37:37;;;;;;;20.10;4.70;;;15.50;99.90;;;;;;5113769;28;20179;-68
2021/08/08 00:40:07;;;;;;;15.13;4.80;;;15.50;99.90;;;;;;5104288;28;20175;-67
2021/08/08 00:42:35;;;;;;;19.60;5.07;;;15.50;99.90;;;;;;5108267;28;20241;-68
2021/08/08 00:45:04;;;;;;;15.20;4.53;;;15.50;99.90;;;;;;5116354;28;20202;-68
2021/08/08 00:47:33;;;;;;;19.30;4.53;;;15.50;99.90;;;;;;5108064;28;20183;-68
2021/08/08 00:50:03;;;;;;;14.30;4.63;;;15.40;99.90;;;;;;5123262;27;20192;-68
2021/08/08 00:52:32;;;;;;;21.73;4.20;;;15.40;99.90;;;;;;5112721;28;20442;-68
2021/08/08 00:55:00;;;;;;;14.67;4.27;;;15.40;99.90;;;;;;5108152;28;20175;-66
2021/08/08 00:57:29;;;;;;;10.90;3.83;;;15.40;99.90;;;;;;5123070;27;20203;-68
2021/08/08 00:59:57;;;;;;;16.33;4.50;;;15.40;99.90;;;;;;5105287;28;20223;-67
2021/08/08 01:02:26;;;;;;;13.17;4.50;;;15.40;99.90;;;;;;5115002;28;20178;-67
2021/08/08 01:05:00;;;;;;;19.47;4.93;;;15.40;99.90;;;;;;5105004;28;20197;-67
2021/08/08 01:07:35;;;;;;;16.13;4.80;;;15.30;99.90;;;;;;5107718;28;20189;-67
2021/08/08 01:10:05;;;;;;;12.60;4.57;;;15.30;99.90;;;;;;5107729;28;20453;-67
2021/08/08 01:12:35;;;;;;;27.60;5.10;;;15.30;99.90;;;;;;5109978;28;20204;-67
2021/08/08 01:15:03;;;;;;;21.47;5.07;;;15.30;99.90;;;;;;5111876;27;20195;-66
2021/08/08 01:17:32;;;;;;;14.00;4.30;;;15.30;99.90;;;;;;5103567;28;20255;-67
2021/08/08 01:20:03;;;;;;;16.13;4.57;;;15.30;99.90;;;;;;5108103;28;20172;-67
2021/08/08 01:22:34;;;;;;;23.27;5.00;;;15.30;99.90;;;;;;5110577;28;20205;-68
2021/08/08 01:25:06;;;;;;;15.67;4.23;;;15.30;99.90;;;;;;5108362;28;20253;-66
2021/08/08 01:27:35;;;;;;;16.33;4.90;;;15.40;99.90;;;;;;5103251;28;20361;-68
2021/08/08 01:30:04;;;;;;;21.23;4.73;;;15.30;99.90;;;;;;5106863;28;20255;-68
2021/08/08 01:32:33;;;;;;;16.13;4.30;;;15.30;99.90;;;;;;5102666;28;20183;-67
2021/08/08 01:35:01;;;;;;;19.27;4.80;;;15.30;99.90;;;;;;5106118;28;20179;-67
2021/08/08 01:37:31;;;;;;;20.53;4.63;;;15.30;99.90;;;;;;5104251;28;20206;-67
2021/08/08 01:40:03;;;;;;;16.20;4.47;;;15.40;99.90;;;;;;5105728;28;20194;-67
2021/08/08 01:42:34;;;;;;;20.60;4.67;;;15.40;99.90;;;;;;5112534;28;20182;-67
2021/08/08 01:45:05;;;;;;;19.90;4.70;;;15.40;99.90;;;;;;5110672;28;20207;-68
2021/08/08 01:47:39;;;;;;;11.87;4.10;;;15.40;99.90;;;;;;5105065;28;20217;-67
2021/08/08 01:50:08;;;;;;;20.53;4.30;;;15.40;99.90;;;;;;5109392;28;20203;-67
2021/08/08 01:52:36;;;;;;;15.00;4.50;;;15.40;99.90;;;;;;5117728;28;20179;-67
2021/08/08 01:55:05;;;;;;;18.70;4.70;;;15.40;99.90;;;;;;5125308;27;20163;-68
2021/08/08 01:57:35;;;;;;;23.93;5.00;;;15.40;99.90;;;;;;5109252;28;20172;-67
2021/08/08 02:00:06;;;;;;;15.30;4.23;;;15.40;99.90;;;;;;5108428;28;20218;-67
2021/08/08 02:02:34;;;;;;;19.73;4.47;;;15.40;99.90;;;;;;5103995;28;20187;-66
2021/08/08 02:05:04;;;;;;;19.57;4.83;;;15.30;99.90;;;;;;5107553;28;20195;-67
2021/08/08 02:07:32;;;;;;;13.30;4.50;;;15.30;99.90;;;;;;5111309;28;20182;-67
2021/08/08 02:10:00;;;;;;;18.23;4.23;;;15.30;99.90;;;;;;5109489;28;20182;-67
2021/08/08 02:12:28;;;;;;;16.00;4.97;;;15.30;99.90;;;;;;5106703;28;20209;-67
2021/08/08 02:15:01;;;;;;;15.77;4.33;;;15.20;99.90;;;;;;5103524;28;20187;-67
2021/08/08 02:17:29;;;;;;;25.43;4.73;;;15.20;99.90;;;;;;5109000;28;20442;-68
2021/08/08 02:19:57;;;;;;;18.93;5.37;;;15.20;99.90;;;;;;5111159;28;20206;-67
2021/08/08 02:22:26;;;;;;;15.47;4.67;;;15.20;99.90;;;;;;5113502;28;20176;-67
2021/08/08 02:24:54;;;;;;;24.17;4.53;;;15.10;99.90;;;;;;5108119;28;20335;-67
2021/08/08 02:27:22;;;;;;;16.57;4.47;;;15.10;99.90;;;;;;5107555;28;20206;-67
2021/08/08 02:29:50;;;;;;;19.37;5.07;;;15.10;99.90;;;;;;5106432;28;20187;-67
2021/08/08 02:32:20;;;;;;;17.10;4.50;;;15.10;99.90;;;;;;5115309;28;20213;-67
2021/08/08 02:34:48;;;;;;;15.13;4.60;;;15.00;99.90;;;;;;5102138;28;20186;-67
2021/08/08 02:37:16;;;;;;;23.53;5.43;;;15.10;99.90;;;;;;5103359;28;20182;-67
2021/08/08 02:39:45;;;;;;;19.83;4.80;;;15.00;99.90;;;;;;5108515;28;20191;-67
2021/08/08 02:42:13;;;;;;;19.00;5.70;;;15.00;99.90;;;;;;5122341;27;20369;-67
2021/08/08 02:44:41;;;;;;;17.77;5.27;;;15.00;99.90;;;;;;5116990;28;20186;-67
2021/08/08 02:47:09;;;;;;;16.50;4.70;;;15.00;99.90;;;;;;5105973;28;20191;-67
2021/08/08 02:49:39;;;;;;;18.90;5.13;;;15.00;99.90;;;;;;5105747;28;20207;-67
2021/08/08 02:52:07;;;;;;;18.00;4.73;;;15.00;99.90;;;;;;5102684;28;20180;-67
2021/08/08 02:54:38;;;;;;;20.77;4.97;;;15.00;99.90;;;;;;5108402;28;20198;-68
2021/08/08 02:57:06;;;;;;;17.90;4.43;;;15.10;99.90;;;;;;5107242;28;20168;-67
2021/08/08 02:59:36;;;;;;;21.50;4.60;;;15.10;99.90;;;;;;5109498;28;20230;-68
2021/08/08 03:02:05;;;;;;;19.57;4.50;;;15.10;99.90;;;;;;5107537;28;20202;-67
2021/08/08 03:04:34;;;;;;;21.93;5.07;;;15.10;99.90;;;;;;5119493;27;20176;-66
2021/08/08 03:07:04;;;;;;;16.53;4.57;;;15.10;99.90;;;;;;5102020;28;20235;-67
2021/08/08 03:09:32;;;;;;;23.37;4.87;;;15.10;99.90;;;;;;5109649;28;20326;-67
2021/08/08 03:12:00;;;;;;;21.63;4.80;;;15.10;99.90;;;;;;5108771;28;20307;-67
2021/08/08 03:14:29;;;;;;;19.80;4.33;;;15.10;99.90;;;;;;5116083;27;20183;-67
2021/08/08 03:16:57;;;;;;;15.97;4.60;;;15.00;99.90;;;;;;5103792;28;20198;-67
2021/08/08 03:19:25;;;;;;;15.57;4.03;;;15.10;99.90;;;;;;5108160;28;20205;-67
2021/08/08 03:21:53;;;;;;;19.17;4.63;;;15.10;99.90;;;;;;5105770;28;20299;-66
2021/08/08 03:24:25;;;;;;;18.40;5.13;;;15.10;99.90;;;;;;5112935;28;20206;-67
2021/08/08 03:26:53;;;;;;;18.77;4.70;;;15.10;99.90;;;;;;5102818;28;20218;-67
2021/08/08 03:29:21;;;;;;;24.87;5.10;;;15.10;99.90;;;;;;5105094;28;20216;-67
2021/08/08 03:31:50;;;;;;;20.33;4.90;;;15.10;99.90;;;;;;5111817;28;20187;-67
2021/08/08 03:34:21;;;;;;;14.73;4.70;;;15.10;99.90;;;;;;5109082;28;20186;-68
2021/08/08 03:36:50;;;;;;;20.20;5.43;;;15.10;99.90;;;;;;5084443;28;20172;-68
2021/08/08 03:39:23;;;;;;;24.83;4.83;;;15.10;99.90;;;;;;5106933;28;20319;-67
2021/08/08 03:41:53;;;;;;;22.80;4.67;;;15.20;99.90;;;;;;5104504;28;20183;-67
2021/08/08 03:44:21;;;;;;;10.37;4.43;;;15.20;99.90;;;;;;5102916;28;20190;-67
2021/08/08 03:46:50;;;;;;;22.60;5.50;;;15.20;99.90;;;;;;5109717;28;20186;-68
2021/08/08 03:49:26;;;;;;;20.03;5.20;;;15.20;99.90;;;;;;5092233;28;20197;-67
2021/08/08 03:52:32;;;;;;;15.13;4.00;;;15.20;99.90;;;;;;5102676;28;20228;-67
2021/08/08 03:55:01;;;;;;;23.70;4.77;;;15.20;99.90;;;;;;5104280;28;20190;-67
2021/08/08 03:57:31;;;;;;;14.13;4.23;;;15.20;99.90;;;;;;5106259;28;20182;-67
2021/08/08 03:59:59;;;;;;;15.43;4.37;;;15.20;99.90;;;;;;5106447;28;20290;-67
2021/08/08 04:02:27;;;;;;;16.00;4.23;;;15.10;99.90;;;;;;5112727;28;20450;-67
2021/08/08 04:04:56;;;;;;;14.40;4.43;;;15.10;99.90;;;;;;5106561;28;20176;-66
2021/08/08 04:07:24;;;;;;;28.83;5.30;;;15.10;99.90;;;;;;5110252;28;20198;-68
2021/08/08 04:09:52;;;;;;;14.60;4.50;;;15.10;99.90;;;;;;5108609;28;20437;-67
2021/08/08 04:12:21;;;;;;;18.47;4.03;;;15.10;99.90;;;;;;5105148;28;20207;-68
2021/08/08 04:14:50;;;;;;;13.10;4.10;;;15.10;99.90;;;;;;5110909;28;20321;-67
2021/08/08 04:17:19;;;;;;;23.60;5.03;;;15.00;99.90;;;;;;5106380;28;20167;-67
2021/08/08 04:19:47;;;;;;;20.57;4.23;;;14.90;99.90;;;;;;5100929;28;21334;-67
2021/08/08 04:22:15;;;;;;;22.23;4.53;;;14.90;99.90;;;;;;5103150;28;20177;-67
2021/08/08 04:24:45;;;;;;;21.17;5.30;;;14.90;99.90;;;;;;5106866;28;20201;-67
2021/08/08 04:27:13;;;;;;;21.17;4.57;;;14.90;99.90;;;;;;5104305;28;20324;-67
2021/08/08 04:29:42;;;;;;;19.90;4.97;;;14.90;99.90;;;;;;5112952;28;20217;-67
2021/08/08 04:32:12;;;;;;;15.20;4.40;;;14.90;99.90;;;;;;5109563;28;20285;-67
2021/08/08 04:34:40;;;;;;;17.20;4.53;;;14.90;99.90;;;;;;5113640;28;20190;-67
2021/08/08 04:37:08;;;;;;;26.87;5.43;;;14.80;99.90;;;;;;5107118;28;20171;-67
2021/08/08 04:39:37;;;;;;;18.67;4.87;;;14.80;99.90;;;;;;5112083;28;20430;-67
2021/08/08 04:42:05;;;;;;;23.67;5.10;;;14.80;99.90;;;;;;5113218;28;20252;-67
2021/08/08 04:44:33;;;;;;;19.13;5.27;;;14.80;99.90;;;;;;5115048;28;20171;-67
2021/08/08 04:47:02;;;;;;;20.10;5.50;;;14.70;99.90;;;;;;5102027;28;20399;-67
2021/08/08 04:49:31;;;;;;;17.33;5.57;;;14.70;99.90;;;;;;5110275;28;20182;-67
2021/08/08 04:52:02;;;;;;;19.67;5.40;;;14.60;99.90;;;;;;5120908;27;20187;-67
2021/08/08 04:54:31;;;;;;;21.03;6.23;;;14.60;99.90;;;;;;5114894;28;20175;-67
2021/08/08 04:56:59;;;;;;;19.77;5.60;;;14.60;99.90;;;;;;5107957;28;20172;-67
2021/08/08 04:59:27;;;;;;;16.97;5.27;;;14.50;99.90;;;;;;5104035;28;20252;-67
2021/08/08 05:01:55;;;;;;;11.33;4.53;;;14.50;99.90;;;;;;5114227;28;20199;-67
2021/08/08 05:04:24;;;;;;;26.10;6.13;;;14.40;99.90;;;;;;5105002;28;20194;-67
2021/08/08 05:06:53;;;;;;;21.33;5.97;;;14.50;99.90;;;;;;5106719;28;20210;-67
2021/08/08 05:09:24;;;;;;;22.67;5.67;;;14.40;99.90;;;;;;5106512;28;21944;-67
2021/08/08 05:11:52;;;;;;;15.07;5.47;;;14.40;99.90;;;;;;5106952;27;20403;-66
2021/08/08 05:14:20;;;;;;;15.87;5.03;;;14.30;99.90;;;;;;5110210;27;20321;-67
2021/08/08 05:16:49;;;;;;;14.40;5.30;;;14.30;99.90;;;;;;5113702;28;20354;-67
2021/08/08 05:19:17;;;;;;;20.37;5.33;;;14.30;99.90;;;;;;5109835;28;20187;-67
2021/08/08 05:21:45;;;;;;;21.37;5.30;;;14.40;99.90;;;;;;5104861;28;20191;-67
2021/08/08 05:24:15;;;;;;;16.00;5.50;;;14.40;99.90;;;;;;5108879;28;20224;-67
2021/08/08 05:26:43;;;;;;;18.50;5.43;;;14.40;99.90;;;;;;5122213;28;20206;-68
2021/08/08 05:29:11;;;;;;;17.07;5.03;;;14.40;99.90;;;;;;5112522;28;20179;-67
2021/08/08 05:31:40;;;;;;;20.97;5.10;;;14.40;99.90;;;;;;5106587;28;20194;-67
2021/08/08 05:34:08;;;;;;;22.63;4.93;;;14.50;99.90;;;;;;5113940;28;20206;-67
2021/08/08 05:36:37;;;;;;;18.63;4.90;;;14.50;99.90;;;;;;5105150;28;20175;-67
2021/08/08 05:39:05;;;;;;;15.23;4.93;;;14.50;99.90;;;;;;5103169;28;20183;-67
2021/08/08 05:41:34;;;;;;;22.53;5.03;;;14.60;99.90;;;;;;5107602;28;20182;-67
2021/08/08 05:44:03;;;;;;;17.53;4.57;;;14.70;99.90;;;;;;5109089;28;20175;-66
2021/08/08 05:46:31;;;;;;;17.13;5.20;;;14.80;99.90;;;;;;5112481;28;20179;-67
2021/08/08 05:48:59;;;;;;;12.27;4.17;;;15.00;99.90;;;;;;5107325;28;20198;-67
2021/08/08 05:51:28;;;;;;;16.13;5.07;;;15.00;99.90;;;;;;5106830;28;20176;-67
2021/08/08 05:53:56;;;;;;;17.87;4.80;;;15.00;99.90;;;;;;5104533;28;20183;-67
2021/08/08 05:56:24;;;;;;;17.60;5.33;;;15.00;99.90;;;;;;5106084;28;20404;-67
2021/08/08 05:58:54;;;;;;;12.83;4.47;;;15.10;99.90;;;;;;5107881;28;20175;-66
2021/08/08 06:01:22;;;;;;;13.10;5.03;;;15.10;99.90;;;;;;5105973;28;20183;-67
2021/08/08 06:03:51;;;;;;;21.27;4.80;;;15.10;99.90;;;;;;5104067;28;20194;-66
2021/08/08 06:06:19;;;;;;;13.07;4.83;;;15.10;99.90;;;;;;5112654;28;20422;-67
2021/08/08 06:08:47;;;;;;;14.20;4.73;;;15.00;99.90;;;;;;5108951;28;20237;-67
2021/08/08 06:11:16;;;;;;;16.67;4.83;;;15.10;99.90;;;;;;5105820;28;20226;-67
2021/08/08 06:13:44;;;;;;;17.00;4.97;;;15.00;99.90;;;;;;5107103;27;20232;-67
2021/08/08 06:16:14;;;;;;;18.03;4.77;;;15.10;99.90;;;;;;5110849;28;20183;-67
2021/08/08 06:18:42;;;;;;;17.00;4.77;;;15.00;99.90;;;;;;5102299;28;20183;-67
2021/08/08 06:21:13;;;;;;;11.33;4.60;;;15.10;99.90;;;;;;5106332;28;21326;-67
2021/08/08 06:23:42;;;;;;;14.70;5.13;;;15.00;99.90;;;;;;5110027;28;20250;-67
2021/08/08 06:26:10;;;;;;;20.13;5.93;;;15.00;99.90;;;;;;5114684;28;20183;-67
2021/08/08 06:28:40;;;;;;;15.40;5.17;;;15.00;99.90;;;;;;5110966;28;20203;-68
2021/08/08 06:31:10;;;;;;;12.27;5.07;;;15.00;99.90;;;;;;5107847;28;20179;-67
2021/08/08 06:33:40;;;;;;;22.97;5.10;;;15.10;99.90;;;;;;5109605;28;20190;-67
2021/08/08 06:36:08;;;;;;;15.30;4.83;;;15.40;99.90;;;;;;5110937;28;20182;-67
2021/08/08 06:38:39;;;;;;;15.83;4.40;;;15.50;99.90;;;;;;5107011;28;20223;-67
2021/08/08 06:41:07;;;;;;;16.60;4.30;;;15.70;99.90;;;;;;5115182;28;20176;-67
2021/08/08 06:43:36;;;;;;;14.30;5.30;;;15.80;99.90;;;;;;5108416;28;20175;-67
2021/08/08 06:46:04;;;;;;;16.77;4.67;;;15.70;99.90;;;;;;5104316;28;20179;-65
2021/08/08 06:48:34;;;;;;;14.13;4.80;;;15.90;99.90;;;;;;5109780;28;20366;-67
2021/08/08 06:51:04;;;;;;;10.97;4.60;;;16.10;99.90;;;;;;5105805;28;20319;-68
2021/08/08 06:53:33;;;;;;;22.30;5.30;;;16.10;99.90;;;;;;5102684;28;20415;-67
2021/08/08 06:56:02;;;;;;;11.53;4.73;;;15.90;99.90;;;;;;5109681;28;20186;-67
2021/08/08 06:58:30;;;;;;;12.17;4.77;;;15.80;99.90;;;;;;5114265;28;20311;-67
2021/08/08 07:00:59;;;;;;;15.63;5.43;;;15.70;99.90;;;;;;5109630;28;20215;-67
2021/08/08 07:03:27;;;;;;;14.27;5.17;;;15.60;99.90;;;;;;5115221;28;20183;-67
2021/08/08 07:05:56;;;;;;;12.40;5.23;;;15.60;99.90;;;;;;5101729;28;20195;-68
2021/08/08 07:08:25;;;;;;;16.53;5.73;;;15.60;99.90;;;;;;5105007;28;20478;-67
2021/08/08 07:10:53;;;;;;;17.30;4.87;;;15.70;99.90;;;;;;5108036;28;20175;-67
2021/08/08 07:13:22;;;;;;;15.57;4.77;;;15.70;99.90;;;;;;5109486;27;20447;-68
2021/08/08 07:15:50;;;;;;;14.87;5.30;;;15.70;99.90;;;;;;5114102;28;20189;-67
2021/08/08 07:18:18;;;;;;;18.80;5.47;;;15.70;99.90;;;;;;5108711;28;20237;-67
2021/08/08 07:20:47;;;;;;;18.17;5.17;;;15.70;99.90;;;;;;5117866;28;20204;-67
2021/08/08 07:23:15;;;;;;;13.83;4.77;;;15.70;99.90;;;;;;5111356;28;20183;-66
2021/08/08 07:25:45;;;;;;;15.50;4.67;;;15.90;99.90;;;;;;5109029;28;20475;-67
2021/08/08 07:28:13;;;;;;;16.43;4.63;;;16.20;99.90;;;;;;5112215;28;20196;-68
2021/08/08 07:30:41;;;;;;;16.00;4.70;;;16.70;99.90;;;;;;5114005;28;20415;-68
2021/08/08 07:33:10;;;;;;;15.23;4.70;;;16.90;99.90;;;;;;5114252;28;20170;-67
2021/08/08 07:35:44;;;;;;;15.67;4.97;;;16.80;99.90;;;;;;5113262;28;20178;-67
2021/08/08 07:38:12;;;;;;;11.50;4.03;;;16.70;99.90;;;;;;5114253;28;20212;-67
2021/08/08 07:40:40;;;;;;;15.50;4.80;;;16.50;99.90;;;;;;5112847;28;20339;-68
2021/08/08 07:43:10;;;;;;;15.50;4.10;;;16.50;99.90;;;;;;5112609;28;20348;-68
2021/08/08 07:45:39;;;;;;;11.17;4.50;;;16.60;99.90;;;;;;5113151;28;20186;-67
2021/08/08 07:48:07;;;;;;;9.33;4.37;;;16.80;99.90;;;;;;5114173;28;20541;-67
2021/08/08 07:50:36;;;;;;;8.60;4.07;;;17.00;99.90;;;;;;5109995;28;20432;-67
2021/08/08 07:53:06;;;;;;;10.27;4.07;;;17.10;99.90;;;;;;5113249;28;20175;-67
2021/08/08 07:55:35;;;;;;;13.50;4.37;;;16.90;99.90;;;;;;5106713;28;20228;-67
2021/08/08 07:58:03;;;;;;;10.40;3.80;;;16.80;99.90;;;;;;5110843;28;20180;-67
2021/08/08 08:00:32;;;;;;;12.40;4.20;;;16.70;99.90;;;;;;5107772;28;20219;-68
2021/08/08 08:03:01;;;;;;;14.07;4.73;;;16.70;99.90;;;;;;5110044;28;20176;-67
2021/08/08 08:05:29;;;;;;;10.93;4.27;;;16.70;99.90;;;;;;5111521;28;20170;-65
2021/08/08 08:07:58;;;;;;;11.87;4.43;;;16.90;99.90;;;;;;5117617;28;20183;-67
2021/08/08 08:10:26;;;;;;;9.70;4.33;;;16.90;99.90;;;;;;5117756;28;20184;-67
2021/08/08 08:12:54;;;;;;;12.67;4.20;;;17.10;99.90;;;;;;5124934;27;20198;-68
2021/08/08 08:15:23;;;;;;;14.37;5.30;;;17.20;99.90;;;;;;5107586;28;20172;-67
2021/08/08 08:17:52;;;;;;;11.77;4.30;;;17.40;99.90;;;;;;5114582;27;20179;-67
2021/08/08 08:20:21;;;;;;;12.70;4.10;;;17.80;99.90;;;;;;5120282;27;20454;-66
2021/08/08 08:22:50;;;;;;;15.10;3.70;;;18.20;99.90;;;;;;5114723;28;20171;-67
2021/08/08 08:25:19;;;;;;;7.47;3.93;;;18.50;99.90;;;;;;5116036;28;20258;-67
2021/08/08 08:27:47;;;;;;;13.30;4.07;;;18.70;99.90;;;;;;5113263;28;20194;-68
2021/08/08 08:30:16;;;;;;;9.37;3.83;;;18.70;99.90;;;;;;5121536;28;20203;-68
2021/08/08 08:32:44;;;;;;;4.80;3.27;;;18.90;99.90;;;;;;5120065;27;20182;-68
2021/08/08 08:35:13;;;;;;;9.50;3.60;;;18.70;99.90;;;;;;5116372;27;20179;-67
2021/08/08 08:37:42;;;;;;;8.83;3.67;;;18.30;99.90;;;;;;5121940;27;20206;-68
2021/08/08 08:40:11;;;;;;;10.00;3.57;;;18.30;99.90;;;;;;5121339;28;20182;-68
2021/08/08 08:42:46;;;;;;;6.63;3.77;;;18.40;99.90;;;;;;5119186;28;20243;-68
2021/08/08 08:45:15;;;;;;;12.13;3.47;;;18.40;99.90;;;;;;5122217;28;20187;-68
2021/08/08 08:47:46;;;;;;;10.83;3.00;;;18.10;99.90;;;;;;5122064;28;20360;-67
2021/08/08 08:50:18;;;;;;;12.03;3.43;;;17.90;99.90;;;;;;5117532;28;20199;-67
2021/08/08 08:52:48;;;;;;;11.33;3.30;;;18.10;99.90;;;;;;5124819;28;20210;-68
2021/08/08 08:55:16;;;;;;;8.77;3.03;;;18.50;99.90;;;;;;5113583;28;20187;-67
2021/08/08 08:57:45;;;;;;;8.87;3.23;;;18.90;99.90;;;;;;5116354;27;20199;-68
2021/08/08 09:00:14;;;;;;;8.37;2.97;;;18.70;99.90;;;;;;5114756;28;20210;-67
2021/08/08 09:02:43;;;;;;;8.27;2.83;;;18.50;99.90;;;;;;5120839;28;20193;-67
2021/08/08 09:05:12;;;;;;;10.10;3.47;;;18.40;99.90;;;;;;5111181;27;20179;-67
2021/08/08 09:07:42;;;;;;;8.07;3.37;;;18.40;99.90;;;;;;5115298;27;20175;-67
2021/08/08 09:10:12;;;;;;;10.33;3.87;;;18.20;99.90;;;;;;5117339;27;20248;-68
2021/08/08 09:12:41;;;;;;;11.07;3.47;;;18.10;99.90;;;;;;5114490;28;20174;-68
2021/08/08 09:15:11;;;;;;;8.73;3.27;;;18.30;99.90;;;;;;5110681;27;20183;-67
2021/08/08 09:17:40;;;;;;;9.13;3.30;;;18.20;99.90;;;;;;5116792;28;20182;-68
2021/08/08 09:20:11;;;;;;;11.87;3.47;;;18.30;99.90;;;;;;5114763;28;20229;-67
2021/08/08 09:22:44;;;;;;;12.23;3.10;;;18.60;99.90;;;;;;5112440;27;20182;-67
2021/08/08 09:25:24;;;;;;;10.80;3.30;;;18.70;99.90;;;;;;5108736;28;20401;-67
2021/08/08 09:27:53;;;;;;;7.67;3.10;;;18.80;99.90;;;;;;5117402;28;20220;-68
2021/08/08 09:30:23;;;;;;;5.13;2.70;;;18.90;99.90;;;;;;5113076;28;20206;-68
2021/08/08 09:33:01;;;;;;;7.47;2.87;;;18.90;99.90;;;;;;5116347;28;20186;-68
2021/08/08 09:35:33;;;;;;;7.37;2.93;;;18.90;99.90;;;;;;5116244;28;20175;-68
2021/08/08 09:38:07;;;;;;;8.17;3.23;;;18.90;99.90;;;;;;5112127;28;20179;-67
2021/08/08 09:40:38;;;;;;;7.10;3.03;;;18.60;99.90;;;;;;5119311;27;20307;-67
2021/08/08 09:43:08;;;;;;;7.27;3.10;;;18.50;99.90;;;;;;5117653;28;20326;-68
2021/08/08 09:45:38;;;;;;;14.50;2.53;;;18.80;99.90;;;;;;5118354;28;20195;-68
2021/08/08 09:48:10;;;;;;;4.23;2.53;;;19.10;99.90;;;;;;5111498;28;20199;-68
2021/08/08 09:50:39;;;;;;;9.60;2.80;;;19.30;99.90;;;;;;5112940;28;20199;-68
2021/08/08 09:53:12;;;;;;;5.10;2.67;;;19.90;99.90;;;;;;5115817;28;20236;-68
2021/08/08 09:55:43;;;;;;;5.70;2.33;;;20.50;99.90;;;;;;5122658;27;20177;-68
2021/08/08 09:58:20;;;;;;;6.13;2.20;;;21.50;99.90;;;;;;5115089;28;20239;-68
2021/08/08 10:00:50;;;;;;;8.77;2.83;;;22.20;99.90;;;;;;5112145;27;20221;-68
2021/08/08 10:03:19;;;;;;;5.67;2.40;;;21.80;99.90;;;;;;5112427;27;20190;-67
2021/08/08 10:05:48;;;;;;;6.90;2.50;;;21.10;99.90;;;;;;5113093;27;20320;-69
2021/08/08 10:08:22;;;;;;;6.73;2.50;;;20.60;99.90;;;;;;5111732;27;20187;-68
2021/08/08 10:10:52;;;;;;;7.60;2.90;;;20.40;99.90;;;;;;5112085;27;20197;-67
2021/08/08 10:13:33;;;;;;;5.43;2.40;;;20.20;99.90;;;;;;5116213;27;20254;-68
2021/08/08 10:16:04;;;;;;;3.97;2.33;;;20.90;99.90;;;;;;5114997;27;20182;-68
2021/08/08 10:18:39;;;;;;;4.17;2.60;;;21.90;99.90;;;;;;5112821;28;20429;-67
2021/08/08 10:21:08;;;;;;;7.67;2.30;;;21.70;99.90;;;;;;5118030;28;20182;-68
2021/08/08 10:23:39;;;;;;;6.63;2.50;;;20.70;99.90;;;;;;5114492;28;20193;-68
2021/08/08 10:26:09;;;;;;;8.90;2.77;;;20.00;99.90;;;;;;5108518;27;20194;-67
2021/08/08 10:28:38;;;;;;;5.13;2.33;;;19.50;99.90;;;;;;5111070;28;20198;-68
2021/08/08 10:31:06;;;;;;;10.53;2.67;;;19.50;99.90;;;;;;5109759;27;20225;-68
2021/08/08 10:33:45;;;;;;;7.73;2.80;;;20.10;99.90;;;;;;5111195;28;20211;-67
2021/08/08 10:36:25;;;;;;;4.37;2.43;;;20.30;99.90;;;;;;5110348;28;20406;-67
2021/08/08 10:39:06;;;;;;;7.33;3.00;;;19.80;99.90;;;;;;5111182;28;20194;-68
2021/08/08 10:41:34;;;;;;;5.57;2.90;;;19.30;99.90;;;;;;5115385;28;20229;-68
2021/08/08 10:44:11;;;;;;;4.37;2.70;;;19.10;99.90;;;;;;5116370;28;20175;-68
2021/08/08 10:46:47;;;;;;;12.63;3.17;;;20.10;99.90;;;;;;5112127;28;20179;-68
2021/08/08 10:49:27;;;;;;;3.53;2.20;;;20.40;99.90;;;;;;5105904;28;20255;-68
2021/08/08 10:52:00;;;;;;;5.60;3.03;;;20.00;99.90;;;;;;5114438;27;20181;-67
2021/08/08 10:54:40;;;;;;;8.97;2.40;;;19.60;99.90;;;;;;5117304;28;20253;-68
2021/08/08 10:57:11;;;;;;;7.80;2.83;;;19.60;99.90;;;;;;5113559;28;20171;-68
2021/08/08 10:59:44;;;;;;;9.57;2.50;;;20.50;99.90;;;;;;5114950;28;20207;-68
2021/08/08 11:02:15;;;;;;;3.00;2.53;;;21.50;99.90;;;;;;5115047;28;20236;-68
2021/08/08 11:04:44;;;;;;;4.13;2.40;;;22.20;99.90;;;;;;5107017;27;20180;-68
2021/08/08 11:07:14;;;;;;;5.13;2.40;;;22.70;99.90;;;;;;5109030;28;20352;-68
2021/08/08 11:09:44;;;;;;;4.80;2.37;;;23.00;99.90;;;;;;5108596;28;20263;-68
2021/08/08 11:12:16;;;;;;;5.57;2.50;;;23.20;99.90;;;;;;5103685;28;20305;-68
2021/08/08 11:14:48;;;;;;;3.10;2.30;;;23.50;99.90;;;;;;5109515;27;20182;-68
2021/08/08 11:17:16;;;;;;;7.23;2.63;;;23.30;99.90;;;;;;5110566;28;20204;-68
2021/08/08 11:19:45;;;;;;;5.57;2.67;;;22.40;99.90;;;;;;5116566;28;20222;-68
2021/08/08 11:22:14;;;;;;;10.53;2.87;;;22.00;99.90;;;;;;5112635;28;20308;-68
2021/08/08 11:24:56;;;;;;;7.87;3.10;;;22.20;99.90;;;;;;5105892;27;20437;-68
2021/08/08 11:27:30;;;;;;;4.87;2.80;;;22.10;99.90;;;;;;5114519;28;20374;-70
2021/08/08 11:29:59;;;;;;;4.63;2.07;;;21.90;99.90;;;;;;5109784;27;20474;-70
2021/08/08 11:32:28;;;;;;;1.27;1.17;;;20.70;99.90;;;;;;5114398;27;20170;-70
2021/08/08 11:35:01;;;;;;;1.50;1.40;;;19.30;99.90;;;;;;5105901;28;20407;-69
2021/08/08 11:37:31;;;;;;;4.00;1.30;;;18.20;99.90;;;;;;5104614;28;20195;-68
2021/08/08 11:40:01;;;;;;;1.30;1.30;;;17.20;99.90;;;;;;5101223;28;20203;-68
2021/08/08 11:42:31;;;;;;;2.03;1.50;;;16.80;99.90;;;;;;5101995;28;20183;-68
2021/08/08 11:45:00;;;;;;;5.50;1.97;;;16.50;99.90;;;;;;5104822;28;20180;-68
2021/08/08 11:47:29;;;;;;;2.10;1.80;;;16.40;99.90;;;;;;5110052;28;20179;-68
2021/08/08 11:49:58;;;;;;;2.57;1.80;;;16.50;99.90;;;;;;5108015;28;20179;-68
2021/08/08 11:52:26;;;;;;;4.80;1.73;;;16.60;99.90;;;;;;5108804;28;20224;-69
2021/08/08 11:55:02;;;;;;;2.17;1.97;;;17.00;99.90;;;;;;5104283;28;20179;-69
2021/08/08 11:57:31;;;;;;;3.17;1.97;;;16.90;99.90;;;;;;5100526;28;20811;-69
2021/08/08 12:00:01;;;;;;;3.97;2.10;;;17.00;99.90;;;;;;5113427;28;20220;-68
2021/08/08 12:02:30;;;;;;;3.10;1.93;;;17.00;99.90;;;;;;5105768;28;20199;-69
2021/08/08 12:04:58;;;;;;;3.13;1.73;;;17.10;99.90;;;;;;5107307;28;20199;-69
2021/08/08 12:07:29;;;;;;;3.90;2.03;;;17.70;99.90;;;;;;5103538;28;20433;-69
2021/08/08 12:09:59;;;;;;;2.43;2.20;;;17.90;99.90;;;;;;5109922;28;20209;-69
2021/08/08 12:12:37;;;;;;;3.63;2.57;;;18.20;99.90;;;;;;5108569;28;20175;-70
2021/08/08 12:15:06;;;;;;;3.30;2.37;;;18.50;99.90;;;;;;5109898;28;20426;-69
2021/08/08 12:17:35;;;;;;;6.30;2.20;;;18.40;99.90;;;;;;5113406;28;20203;-68
2021/08/08 12:20:10;;;;;;;4.03;2.50;;;18.10;99.90;;;;;;5108794;28;20199;-65
2021/08/08 12:22:38;;;;;;;4.07;2.33;;;17.60;99.90;;;;;;5114991;28;20436;-69
2021/08/08 12:25:09;;;;;;;5.77;1.90;;;17.20;99.90;;;;;;5108196;28;20411;-69
2021/08/08 12:27:40;;;;;;;2.60;1.77;;;16.50;99.90;;;;;;5108743;28;20182;-68
2021/08/08 12:30:11;;;;;;;2.13;1.97;;;16.10;99.90;;;;;;5119000;28;20202;-69
2021/08/08 12:32:41;;;;;;;2.07;1.90;;;16.10;99.90;;;;;;5107974;28;20225;-69
2021/08/08 12:35:12;;;;;;;4.20;2.10;;;16.10;99.90;;;;;;5114503;28;20183;-69
2021/08/08 12:37:41;;;;;;;1.80;1.73;;;16.20;99.90;;;;;;5113008;28;20430;-69
2021/08/08 12:40:11;;;;;;;1.93;1.80;;;16.30;99.90;;;;;;5111820;28;20208;-69
2021/08/08 12:42:42;;;;;;;2.73;2.00;;;16.30;99.90;;;;;;5114557;28;20588;-68
2021/08/08 12:45:13;;;;;;;4.20;1.97;;;16.30;99.90;;;;;;5115122;28;20250;-70
2021/08/08 12:47:46;;;;;;;6.83;2.10;;;16.40;99.90;;;;;;5105653;28;20413;-68
2021/08/08 12:50:17;;;;;;;5.83;2.27;;;16.30;99.90;;;;;;5106691;27;20296;-69
2021/08/08 12:52:46;;;;;;;2.90;2.30;;;16.30;99.90;;;;;;5109856;28;20206;-69